Latest Weather Observations for Terrey Hills

IDN60801

Issued at 9:12 am EST Tuesday 26 May 2020 (issued every 10 minutes, with the page automatically refreshed every 10 minutes)

About weather observations | Map of weather stations | Latest weather observations for NSW | Other Formats
Station Details ID: 066059 Name: TERREY HILLS AWS Lat: -33.69 Lon: 151.23 Height: 199.0 m
Data from the previous 72 hours. | See also: Recent months at Terrey Hills
Date/Time
EST
Temp
°C
App
Temp
°C
Dew
Point
°C
Rel
Hum
%
Delta-T
°C
Wind Press
QNH
hPa
Press
MSL
hPa
Rain since
9am
mm
Dir  Spd
km/h
Gust
km/h
Spd
kts
Gust
kts
26/09:00am 13.0 11.9 13.0 100 0.0 SW 11 20 6 11 - - 37.8
26/08:30am 12.8 11.6 12.8 100 0.0 SW 11 17 6 9 - - 37.6
26/08:00am 12.7 11.5 12.7 100 0.0 SSW 11 24 6 13 - - 37.4
26/07:30am 12.4 10.7 12.4 100 0.0 SW 13 24 7 13 - - 36.8
26/07:00am 12.4 10.3 12.4 100 0.0 SW 15 28 8 15 - - 36.6
26/06:30am 12.5 10.8 12.5 100 0.0 SW 13 24 7 13 - - 35.8
26/06:00am 12.6 10.9 12.6 100 0.0 SSW 13 24 7 13 - - 35.6
26/05:30am 12.7 9.9 12.7 100 0.0 SSW 19 32 10 17 - - 35.0
26/05:00am 12.7 10.3 12.7 100 0.0 SSW 17 30 9 16 - - 34.6
26/04:30am 12.7 10.3 12.7 100 0.0 SSW 17 32 9 17 - - 34.4
26/04:00am 12.5 9.5 12.5 100 0.0 SW 20 39 11 21 - - 34.4
26/03:30am 12.4 9.9 12.4 100 0.0 SW 17 26 9 14 - - 34.0
26/03:00am 12.6 9.6 12.6 100 0.0 SW 20 37 11 20 - - 32.4
26/02:30am 12.4 9.4 12.4 100 0.0 SW 20 33 11 18 - - 32.4
26/02:00am 12.4 9.5 12.4 100 0.0 SSW 19 32 10 17 - - 32.4
26/01:30am 12.4 9.4 12.4 100 0.0 SW 20 35 11 19 - - 32.2
26/01:00am 12.4 9.4 12.4 100 0.0 SSW 20 35 11 19 - - 32.0
26/12:30am 12.3 9.4 12.3 100 0.0 SSW 19 28 10 15 - - 31.8
26/12:00am 12.4 9.4 12.4 100 0.0 SSW 20 33 11 18 - - 31.6
 
Date/Time
EST
Temp
°C
App
Temp
°C
Dew
Point
°C
Rel
Hum
%
Delta-T
°C
Wind Press
QNH
hPa
Press
MSL
hPa
Rain since
9am
mm
Dir  Spd
km/h
Gust
km/h
Spd
kts
Gust
kts
25/11:30pm 12.5 9.5 12.5 100 0.0 SSW 20 33 11 18 - - 31.4
25/11:00pm 12.5 9.5 12.5 100 0.0 SW 20 39 11 21 - - 31.4
25/10:30pm 12.7 9.4 12.7 100 0.0 SSW 22 35 12 19 - - 31.4
25/10:00pm 12.7 9.9 12.7 100 0.0 SSW 19 32 10 17 - - 31.0
25/09:30pm 12.7 9.7 12.7 100 0.0 SSW 20 35 11 19 - - 30.0
25/09:00pm 12.8 9.9 12.8 100 0.0 SSW 20 33 11 18 - - 29.2
25/08:30pm 12.6 9.8 12.6 100 0.0 SW 19 33 10 18 - - 27.8
25/08:00pm 12.6 9.8 12.6 100 0.0 SW 19 33 10 18 - - 24.6
25/07:30pm 12.6 8.9 12.6 100 0.0 SSW 24 44 13 24 - - 22.0
25/07:00pm 12.5 9.5 12.5 100 0.0 SSW 20 39 11 21 - - 17.2
25/06:30pm 12.7 9.0 12.7 100 0.0 SSW 24 39 13 21 - - 12.4
25/06:00pm 12.6 9.2 12.6 100 0.0 SW 22 50 12 27 - - 10.0
25/05:30pm 12.6 8.8 12.4 99 0.1 SW 24 43 13 23 - - 8.4
25/05:00pm 12.7 8.9 12.4 98 0.2 SW 24 41 13 22 - - 6.2
25/04:30pm 12.9 9.9 12.4 97 0.3 SSW 20 35 11 19 - - 3.2
25/04:00pm 13.3 9.7 12.0 92 0.7 SSW 22 35 12 19 - - 1.6
25/03:30pm 13.9 9.9 11.8 87 1.1 SSW 24 41 13 22 - - 1.2
25/03:00pm 14.2 10.1 11.4 83 1.5 SSW 24 48 13 26 - - 1.2
25/02:51pm 14.4 9.5 11.2 81 1.7 SSW 28 48 15 26 - - 1.2
25/02:30pm 14.3 10.5 11.3 82 1.6 SSW 22 41 12 22 - - 1.2
25/02:00pm 14.1 10.0 11.6 85 1.4 SSW 24 43 13 23 - - 1.2
25/01:32pm 13.8 8.9 11.3 85 1.3 SSW 28 54 15 29 - - 1.0
25/01:30pm 13.7 9.2 11.4 86 1.2 SSW 26 44 14 24 - - 1.0
25/01:00pm 13.7 10.5 11.9 89 1.0 SSW 20 35 11 19 - - 1.0
25/12:35pm 13.5 8.8 12.1 91 0.8 SSW 28 48 15 26 - - 1.0
25/12:30pm 13.5 9.6 12.2 92 0.7 SSW 24 46 13 25 - - 1.0
25/12:00pm 13.2 9.7 12.1 93 0.6 SSW 22 39 12 21 - - 1.0
25/11:35am 13.3 8.5 11.7 90 0.9 SSW 28 48 15 26 - - 0.8
25/11:30am 13.4 9.8 12.0 91 0.8 SSW 22 43 12 23 - - 0.8
25/11:00am 13.6 9.2 11.8 89 1.0 SSW 26 41 14 22 - - 0.8
25/10:30am 13.1 10.1 11.8 92 0.7 SSW 19 35 10 19 - - 0.8
25/10:00am 11.9 9.0 11.1 95 0.4 SW 17 37 9 20 - - 0.8
25/09:30am 11.4 8.3 10.3 93 0.6 WSW 17 24 9 13 - - 0.4
25/09:00am 11.2 8.0 9.8 91 0.7 WSW 17 28 9 15 - - 0.2
25/08:30am 11.2 7.9 9.5 89 0.9 SW 17 30 9 16 - - 0.2
25/08:00am 11.3 7.9 9.0 86 1.2 SW 17 26 9 14 - - 0.0
25/07:30am 12.0 7.9 8.5 79 1.8 SW 20 39 11 21 - - 0.0
25/07:00am 12.0 7.9 7.9 76 2.0 SW 19 33 10 18 - - 0.0
25/06:30am 11.9 8.5 7.6 75 2.1 SW 15 28 8 15 - - 0.0
25/06:00am 12.0 8.2 7.7 75 2.1 SW 17 30 9 16 - - 0.0
25/05:30am 11.9 8.1 7.4 74 2.2 SW 17 28 9 15 - - 0.0
25/05:00am 11.9 7.7 7.4 74 2.2 SW 19 28 10 15 - - 0.0
25/04:30am 11.9 8.1 7.4 74 2.2 SW 17 30 9 16 - - 0.0
25/04:00am 11.8 7.6 7.3 74 2.2 SW 19 32 10 17 - - 0.0
25/03:30am 11.9 7.2 7.6 75 2.1 SW 22 41 12 22 - - 0.0
25/03:00am 11.9 8.2 7.8 76 2.0 SW 17 33 9 18 - - 0.0
25/02:30am 12.0 8.2 7.5 74 2.2 SW 17 30 9 16 - - 0.0
25/02:00am 12.0 8.3 8.1 77 1.9 SSW 17 28 9 15 - - 0.0
25/01:30am 12.1 8.3 7.4 73 2.3 SW 17 28 9 15 - - 0.0
25/01:00am 12.2 8.0 7.5 73 2.3 SW 19 32 10 17 - - 0.0
25/12:30am 12.3 8.0 7.0 70 2.6 SW 19 35 10 19 - - 0.0
25/12:00am 12.4 8.5 6.9 69 2.7 SW 17 32 9 17 - - 0.0
 
Date/Time
EST
Temp
°C
App
Temp
°C
Dew
Point
°C
Rel
Hum
%
Delta-T
°C
Wind Press
QNH
hPa
Press
MSL
hPa
Rain since
9am
mm
Dir  Spd
km/h
Gust
km/h
Spd
kts
Gust
kts
24/11:30pm 12.3 8.0 7.0 70 2.6 SW 19 32 10 17 - - 0.0
24/11:00pm 12.2 8.6 6.9 70 2.6 SW 15 26 8 14 - - 0.0
24/10:30pm 12.4 8.1 7.1 70 2.6 SW 19 28 10 15 - - 0.0
24/10:00pm 12.6 8.7 6.9 68 2.8 SW 17 32 9 17 - - 0.0
24/09:30pm 12.9 8.8 6.3 64 3.2 SW 17 35 9 19 - - 0.0
24/09:00pm 12.9 8.8 6.0 63 3.3 SW 17 33 9 18 - - 0.0
24/08:30pm 12.8 8.6 5.5 61 3.4 SW 17 28 9 15 - - 0.0
24/08:00pm 13.1 8.9 5.5 60 3.6 SW 17 28 9 15 - - 0.0
24/07:30pm 13.7 8.6 5.8 59 3.8 SW 22 39 12 21 - - 0.0
24/07:00pm 13.8 8.3 5.9 59 3.8 SW 24 43 13 23 - - 0.0
24/06:30pm 14.0 8.1 5.9 58 3.9 SSW 26 48 14 26 - - 0.0
24/06:13pm 14.2 8.0 6.1 58 3.9 SSW 28 48 15 26 - - 0.0
24/06:00pm 14.3 9.2 6.2 58 3.9 SSW 22 44 12 24 - - 0.0
24/05:30pm 14.4 9.5 7.0 61 3.6 SSW 22 39 12 21 - - 0.0
24/05:00pm 14.5 8.9 7.3 62 3.6 SSW 26 46 14 25 - - 0.0
24/04:30pm 14.6 8.7 7.6 63 3.5 SSW 28 48 15 26 - - 0.0
24/04:05pm 14.7 8.9 8.0 64 3.4 SSW 28 54 15 29 - - 0.0
24/04:00pm 14.7 9.7 8.2 65 3.3 SSW 24 46 13 25 - - 0.0
24/03:30pm 15.0 10.1 8.5 65 3.3 SSW 24 43 13 23 - - 0.0
24/03:00pm 14.5 10.2 9.3 71 2.7 SSW 22 50 12 27 - - 0.0
24/02:41pm 14.8 9.3 9.2 69 2.9 SSW 28 48 15 26 - - 0.0
24/02:30pm 15.1 10.1 9.7 70 2.8 SSW 26 52 14 28 - - 0.0
24/02:21pm 14.4 8.9 9.2 71 2.7 SSW 28 54 15 29 - - 0.0
24/02:00pm 15.2 10.4 8.9 66 3.2 SSW 24 43 13 23 - - 0.0
24/01:30pm 14.8 10.1 9.2 69 2.9 SSW 24 56 13 30 - - 0.0
24/01:00pm 15.4 8.9 9.1 66 3.3 SSW 33 57 18 31 - - 0.0
24/12:35pm 15.1 9.6 9.0 67 3.1 SSW 28 57 15 31 - - 0.0
24/12:30pm 15.2 11.0 9.6 69 2.9 SSW 22 52 12 28 - - 0.0
24/12:14pm 15.2 9.8 9.6 69 2.9 SSW 28 48 15 26 - - 0.0
24/12:00pm 15.2 11.1 10.0 71 2.7 SSW 22 39 12 21 - - 0.0
24/11:30am 14.9 10.4 10.1 73 2.5 SSW 24 48 13 26 - - 0.0
24/11:00am 14.9 9.6 9.7 71 2.7 SSW 28 52 15 28 - - 0.0
24/10:40am 15.1 9.8 9.9 71 2.7 SSW 28 57 15 31 - - 0.0
24/10:30am 15.3 11.2 10.1 71 2.7 SSW 22 52 12 28 - - 0.0
24/10:21am 15.3 10.0 9.9 70 2.8 SSW 28 52 15 28 - - 0.0
24/10:00am 15.0 10.8 9.8 71 2.7 SSW 22 41 12 22 - - 0.0
24/09:30am 14.2 10.2 8.4 68 2.9 SW 19 37 10 20 - - 0.0
24/09:00am 13.6 9.5 8.0 69 2.8 SW 19 32 10 17 - - 0.0
24/08:30am 13.3 9.0 7.7 69 2.8 SW 20 33 11 18 - - 0.0
24/08:00am 13.2 8.5 7.6 69 2.8 SW 22 43 12 23 - - 0.0
24/07:30am 13.1 8.9 7.5 69 2.8 SW 19 33 10 18 - - 0.0
24/07:00am 12.9 9.1 7.4 69 2.7 SW 17 24 9 13 - - 0.0
24/06:30am 13.1 9.3 7.5 69 2.8 SW 17 28 9 15 - - 0.0
24/06:00am 12.9 9.1 7.4 69 2.7 SW 17 32 9 17 - - 0.0
24/05:30am 13.1 9.2 7.3 68 2.9 SW 17 30 9 16 - - 0.0
24/05:00am 13.0 8.8 7.5 69 2.7 SW 19 32 10 17 - - 0.0
24/04:30am 13.0 9.2 7.5 69 2.7 SW 17 33 9 18 - - 0.0
24/04:00am 13.0 9.2 7.5 69 2.7 SW 17 32 9 17 - - 0.0
24/03:30am 12.9 8.7 7.4 69 2.7 SW 19 37 10 20 - - 0.0
24/03:00am 12.9 8.7 7.6 70 2.6 SW 19 35 10 19 - - 0.0
24/02:30am 13.0 9.2 7.5 69 2.7 WSW 17 30 9 16 - - 0.0
24/02:00am 13.0 9.2 7.5 69 2.7 SW 17 30 9 16 - - 0.0
24/01:30am 13.1 9.4 7.8 70 2.6 WSW 17 30 9 16 - - 0.0
24/01:00am 13.1 9.0 7.8 70 2.6 WSW 19 33 10 18 - - 0.0
24/12:30am 13.1 9.4 7.8 70 2.6 WSW 17 28 9 15 - - 0.0
24/12:00am 13.1 9.4 8.0 71 2.5 WSW 17 26 9 14 - - 0.0
 
Date/Time
EST
Temp
°C
App
Temp
°C
Dew
Point
°C
Rel
Hum
%
Delta-T
°C
Wind Press
QNH
hPa
Press
MSL
hPa
Rain since
9am
mm
Dir  Spd
km/h
Gust
km/h
Spd
kts
Gust
kts
23/11:30pm 13.2 9.5 8.1 71 2.6 WSW 17 26 9 14 - - 0.0
23/11:00pm 13.3 9.6 8.0 70 2.6 WSW 17 32 9 17 - - 0.0
23/10:30pm 13.3 9.6 8.0 70 2.6 WSW 17 26 9 14 - - 0.0
23/10:00pm 13.4 10.2 8.3 71 2.6 WSW 15 32 8 17 - - 0.0
23/09:30pm 13.5 9.9 8.4 71 2.6 WSW 17 28 9 15 - - 0.0
23/09:00pm 13.5 10.3 8.4 71 2.6 WSW 15 28 8 15 - - 0.0
23/08:30pm 13.2 10.1 8.7 74 2.3 WSW 15 20 8 11 - - 0.0
23/08:00pm 13.0 10.7 8.9 76 2.1 WSW 11 20 6 11 - - 0.0
23/07:30pm 12.9 10.3 9.4 79 1.8 WSW 13 20 7 11 - - 0.0
23/07:00pm 12.6 10.5 9.8 83 1.4 W 11 20 6 11 - - 0.0
23/06:30pm 12.4 10.4 10.1 86 1.2 WSW 11 19 6 10 - - 0.0
23/06:00pm 12.3 9.9 10.0 86 1.2 WSW 13 22 7 12 - - 0.0
23/05:30pm 12.2 9.9 10.4 89 0.9 WSW 13 26 7 14 - - 0.0
23/05:00pm 12.2 10.4 10.8 91 0.7 W 11 19 6 10 - - 0.0
23/04:30pm 12.3 10.4 10.4 88 1.0 W 11 20 6 11 - - 0.0
23/04:00pm 12.9 10.3 9.5 80 1.7 WSW 13 24 7 13 - - 0.0
23/03:30pm 13.3 10.8 9.7 79 1.9 WSW 13 20 7 11 - - 0.0
23/03:00pm 14.2 12.1 9.6 74 2.4 WSW 11 20 6 11 - - 0.0
23/02:30pm 14.4 11.5 9.6 73 2.5 WSW 15 26 8 14 - - 0.0
23/02:00pm 14.1 11.3 9.9 76 2.2 WSW 15 24 8 13 - - 0.0
23/01:30pm 14.0 11.6 10.0 77 2.1 WSW 13 24 7 13 - - 0.0
23/01:00pm 14.5 11.2 9.7 73 2.5 WSW 17 33 9 18 - - 0.0
23/12:30pm 15.4 11.5 8.6 64 3.5 SW 19 37 10 20 - - 0.0
23/12:00pm 15.7 12.5 8.4 62 3.7 SW 15 26 8 14 - - 0.0
23/11:30am 15.9 12.3 8.4 61 3.8 SW 17 28 9 15 - - 0.0
23/11:00am 16.1 12.0 7.8 58 4.2 SW 19 33 10 18 - - 0.0
23/10:30am 16.3 12.4 8.8 61 3.9 WSW 19 33 10 18 - - 0.0
23/10:00am 15.5 11.4 8.5 63 3.6 WSW 20 32 11 17 - - 0.0
23/09:30am 14.7 10.7 8.4 66 3.2 WSW 19 30 10 16 - - 0.0

Other formats

Comma delimited format used in spreadsheet applications
http://www.bom.gov.au/fwo/IDN60801/IDN60801.94759.axf

JavaScript Object Notation format (JSON) in row-major order
http://www.bom.gov.au/fwo/IDN60801/IDN60801.94759.json

Data quality

Most of these data are generated automatically and are frequently updated. Quality checks on data are not normally performed. It is possible for incorrect values to appear. Refer to information at About Latest Weather Observations and please check the disclaimer before using these data.